sensor_id;sensor_type;location;lat;lon;timestamp;pressure;altitude;pressure_sealevel;temperature;humidity
49611;BME280;35515;48.766;9.176;2023-12-04T00:02:17;98515.50;;;-3.33;91.94
49611;BME280;35515;48.766;9.176;2023-12-04T00:04:45;98501.88;;;-3.28;91.25
49611;BME280;35515;48.766;9.176;2023-12-04T00:07:12;98517.72;;;-3.15;90.33
49611;BME280;35515;48.766;9.176;2023-12-04T00:09:38;98500.44;;;-3.32;91.72
49611;BME280;35515;48.766;9.176;2023-12-04T00:12:05;98496.22;;;-3.35;91.15
49611;BME280;35515;48.766;9.176;2023-12-04T00:14:32;98500.56;;;-3.34;91.24
49611;BME280;35515;48.766;9.176;2023-12-04T00:16:58;98502.44;;;-3.47;92.36
49611;BME280;35515;48.766;9.176;2023-12-04T00:19:25;98495.91;;;-3.55;93.06
49611;BME280;35515;48.766;9.176;2023-12-04T00:21:53;98484.75;;;-3.47;92.68
49611;BME280;35515;48.766;9.176;2023-12-04T00:24:19;98475.34;;;-3.51;92.92
49611;BME280;35515;48.766;9.176;2023-12-04T00:26:46;98476.59;;;-3.44;91.75
49611;BME280;35515;48.766;9.176;2023-12-04T00:29:12;98477.03;;;-3.50;91.73
49611;BME280;35515;48.766;9.176;2023-12-04T00:31:39;98466.56;;;-3.40;91.88
49611;BME280;35515;48.766;9.176;2023-12-04T00:34:05;98458.13;;;-3.45;91.85
49611;BME280;35515;48.766;9.176;2023-12-04T00:36:32;98456.69;;;-3.49;92.30
49611;BME280;35515;48.766;9.176;2023-12-04T00:39:00;98455.78;;;-3.37;91.37
49611;BME280;35515;48.766;9.176;2023-12-04T00:41:26;98452.63;;;-3.42;91.54
49611;BME280;35515;48.766;9.176;2023-12-04T00:43:53;98452.63;;;-3.42;90.60
49611;BME280;35515;48.766;9.176;2023-12-04T00:46:19;98451.16;;;-3.46;90.69
49611;BME280;35515;48.766;9.176;2023-12-04T00:48:46;98453.31;;;-3.51;91.43
49611;BME280;35515;48.766;9.176;2023-12-04T00:51:13;98447.66;;;-3.58;91.90
49611;BME280;35515;48.766;9.176;2023-12-04T00:53:39;98448.47;;;-3.69;92.21
49611;BME280;35515;48.766;9.176;2023-12-04T00:56:09;98446.78;;;-3.59;91.83
49611;BME280;35515;48.766;9.176;2023-12-04T00:58:35;98445.97;;;-3.59;91.71
49611;BME280;35515;48.766;9.176;2023-12-04T01:01:02;98445.38;;;-3.40;90.68
49611;BME280;35515;48.766;9.176;2023-12-04T01:03:29;98442.25;;;-3.45;90.65
49611;BME280;35515;48.766;9.176;2023-12-04T01:05:58;98439.34;;;-3.65;92.23
49611;BME280;35515;48.766;9.176;2023-12-04T01:08:24;98434.00;;;-3.76;92.43
49611;BME280;35515;48.766;9.176;2023-12-04T01:10:51;98428.69;;;-3.76;92.02
49611;BME280;35515;48.766;9.176;2023-12-04T01:13:19;98435.81;;;-3.77;92.08
49611;BME280;35515;48.766;9.176;2023-12-04T01:15:45;98429.66;;;-3.77;92.49
49611;BME280;35515;48.766;9.176;2023-12-04T01:18:13;98428.25;;;-3.70;91.92
49611;BME280;35515;48.766;9.176;2023-12-04T01:20:40;98427.50;;;-3.72;91.65
49611;BME280;35515;48.766;9.176;2023-12-04T01:23:07;98432.97;;;-3.62;91.52
49611;BME280;35515;48.766;9.176;2023-12-04T01:25:33;98429.38;;;-3.50;90.78
49611;BME280;35515;48.766;9.176;2023-12-04T01:28:00;98421.16;;;-3.58;89.83
49611;BME280;35515;48.766;9.176;2023-12-04T01:30:27;98422.69;;;-3.67;90.11
49611;BME280;35515;48.766;9.176;2023-12-04T01:32:54;98412.59;;;-3.62;90.13
49611;BME280;35515;48.766;9.176;2023-12-04T01:35:20;98408.97;;;-3.72;90.69
49611;BME280;35515;48.766;9.176;2023-12-04T01:37:47;98406.69;;;-3.77;91.10
49611;BME280;35515;48.766;9.176;2023-12-04T01:40:14;98399.44;;;-3.75;90.09
49611;BME280;35515;48.766;9.176;2023-12-04T01:42:42;98400.53;;;-3.77;90.74
49611;BME280;35515;48.766;9.176;2023-12-04T01:45:09;98396.72;;;-3.73;91.66
49611;BME280;35515;48.766;9.176;2023-12-04T01:47:37;98392.88;;;-3.69;90.44
49611;BME280;35515;48.766;9.176;2023-12-04T01:50:05;98392.63;;;-3.66;90.12
49611;BME280;35515;48.766;9.176;2023-12-04T01:52:32;98396.22;;;-3.67;90.05
49611;BME280;35515;48.766;9.176;2023-12-04T01:54:59;98390.72;;;-3.53;89.74
49611;BME280;35515;48.766;9.176;2023-12-04T01:57:26;98396.50;;;-3.47;89.06
49611;BME280;35515;48.766;9.176;2023-12-04T01:59:52;98392.88;;;-3.69;90.29
49611;BME280;35515;48.766;9.176;2023-12-04T02:02:19;98389.47;;;-3.71;90.45
49611;BME280;35515;48.766;9.176;2023-12-04T02:04:47;98387.31;;;-3.66;90.00
49611;BME280;35515;48.766;9.176;2023-12-04T02:07:14;98388.03;;;-3.75;90.23
49611;BME280;35515;48.766;9.176;2023-12-04T02:09:41;98392.50;;;-3.76;90.40
49611;BME280;35515;48.766;9.176;2023-12-04T02:12:07;98390.22;;;-3.69;90.09
49611;BME280;35515;48.766;9.176;2023-12-04T02:14:34;98391.78;;;-3.66;90.03
49611;BME280;35515;48.766;9.176;2023-12-04T02:17:01;98391.41;;;-3.62;90.20
49611;BME280;35515;48.766;9.176;2023-12-04T02:19:31;98386.25;;;-3.52;89.64
49611;BME280;35515;48.766;9.176;2023-12-04T02:21:59;98377.00;;;-3.35;88.82
49611;BME280;35515;48.766;9.176;2023-12-04T02:24:28;98368.34;;;-3.37;89.15
49611;BME280;35515;48.766;9.176;2023-12-04T02:26:59;98364.22;;;-3.53;89.49
49611;BME280;35515;48.766;9.176;2023-12-04T02:29:32;98363.75;;;-3.69;89.15
49611;BME280;35515;48.766;9.176;2023-12-04T02:32:05;98369.75;;;-3.67;89.74
49611;BME280;35515;48.766;9.176;2023-12-04T02:34:33;98358.34;;;-3.45;88.45
49611;BME280;35515;48.766;9.176;2023-12-04T02:37:01;98367.50;;;-3.49;88.21
49611;BME280;35515;48.766;9.176;2023-12-04T02:39:30;98364.97;;;-3.39;87.51
49611;BME280;35515;48.766;9.176;2023-12-04T02:41:56;98362.31;;;-3.39;87.11
49611;BME280;35515;48.766;9.176;2023-12-04T02:44:23;98380.25;;;-3.54;88.04
49611;BME280;35515;48.766;9.176;2023-12-04T02:46:50;98371.72;;;-3.46;87.57
49611;BME280;35515;48.766;9.176;2023-12-04T02:49:16;98377.47;;;-3.53;88.02
49611;BME280;35515;48.766;9.176;2023-12-04T02:51:43;98370.25;;;-3.62;89.21
49611;BME280;35515;48.766;9.176;2023-12-04T02:54:09;98364.31;;;-3.77;90.54
49611;BME280;35515;48.766;9.176;2023-12-04T02:56:37;98356.63;;;-3.68;89.75
49611;BME280;35515;48.766;9.176;2023-12-04T02:59:04;98338.94;;;-3.79;89.94
49611;BME280;35515;48.766;9.176;2023-12-04T03:01:30;98332.19;;;-3.72;89.69
49611;BME280;35515;48.766;9.176;2023-12-04T03:03:57;98317.03;;;-3.70;89.10
49611;BME280;35515;48.766;9.176;2023-12-04T03:06:23;98313.44;;;-3.69;88.68
49611;BME280;35515;48.766;9.176;2023-12-04T03:08:50;98313.78;;;-3.74;89.19
49611;BME280;35515;48.766;9.176;2023-12-04T03:11:16;98310.16;;;-3.61;89.11
49611;BME280;35515;48.766;9.176;2023-12-04T03:13:44;98306.69;;;-3.73;89.81
49611;BME280;35515;48.766;9.176;2023-12-04T03:16:15;98310.78;;;-3.58;89.88
49611;BME280;35515;48.766;9.176;2023-12-04T03:18:42;98307.88;;;-3.32;88.24
49611;BME280;35515;48.766;9.176;2023-12-04T03:21:08;98296.78;;;-3.26;87.29
49611;BME280;35515;48.766;9.176;2023-12-04T03:23:35;98294.25;;;-3.39;87.26
49611;BME280;35515;48.766;9.176;2023-12-04T03:26:01;98286.81;;;-3.56;88.10
49611;BME280;35515;48.766;9.176;2023-12-04T03:28:28;98287.69;;;-3.56;88.56
49611;BME280;35515;48.766;9.176;2023-12-04T03:30:56;98286.22;;;-3.71;88.44
49611;BME280;35515;48.766;9.176;2023-12-04T03:33:23;98285.50;;;-3.73;89.55
49611;BME280;35515;48.766;9.176;2023-12-04T03:35:49;98281.16;;;-3.63;88.68
49611;BME280;35515;48.766;9.176;2023-12-04T03:38:16;98274.63;;;-3.25;86.39
49611;BME280;35515;48.766;9.176;2023-12-04T03:40:42;98270.09;;;-3.57;87.11
49611;BME280;35515;48.766;9.176;2023-12-04T03:43:09;98261.75;;;-3.52;87.20
49611;BME280;35515;48.766;9.176;2023-12-04T03:45:35;98257.81;;;-3.80;88.39
49611;BME280;35515;48.766;9.176;2023-12-04T03:48:03;98248.31;;;-3.83;89.67
49611;BME280;35515;48.766;9.176;2023-12-04T03:50:30;98236.66;;;-3.92;90.40
49611;BME280;35515;48.766;9.176;2023-12-04T03:52:56;98243.38;;;-3.88;89.83
49611;BME280;35515;48.766;9.176;2023-12-04T03:55:23;98248.91;;;-3.68;89.80
49611;BME280;35515;48.766;9.176;2023-12-04T03:57:49;98242.91;;;-3.70;89.15
49611;BME280;35515;48.766;9.176;2023-12-04T04:00:16;98243.16;;;-3.73;89.49
49611;BME280;35515;48.766;9.176;2023-12-04T04:02:43;98240.50;;;-3.84;90.08
49611;BME280;35515;48.766;9.176;2023-12-04T04:05:11;98249.88;;;-3.80;89.78
49611;BME280;35515;48.766;9.176;2023-12-04T04:07:38;98249.97;;;-3.71;88.79
49611;BME280;35515;48.766;9.176;2023-12-04T04:10:06;98245.06;;;-3.75;89.71
49611;BME280;35515;48.766;9.176;2023-12-04T04:12:32;98246.75;;;-3.51;87.88
49611;BME280;35515;48.766;9.176;2023-12-04T04:14:59;98241.44;;;-3.63;88.89
49611;BME280;35515;48.766;9.176;2023-12-04T04:17:26;98240.13;;;-3.57;89.14
49611;BME280;35515;48.766;9.176;2023-12-04T04:19:53;98234.69;;;-3.44;88.06
49611;BME280;35515;48.766;9.176;2023-12-04T04:22:22;98223.13;;;-3.43;87.25
49611;BME280;35515;48.766;9.176;2023-12-04T04:24:49;98222.53;;;-3.70;88.84
49611;BME280;35515;48.766;9.176;2023-12-04T04:27:15;98232.31;;;-3.70;89.40
49611;BME280;35515;48.766;9.176;2023-12-04T04:29:42;98233.75;;;-3.66;89.51
49611;BME280;35515;48.766;9.176;2023-12-04T04:32:08;98239.00;;;-3.55;89.67
49611;BME280;35515;48.766;9.176;2023-12-04T04:34:35;98244.09;;;-3.51;89.30
49611;BME280;35515;48.766;9.176;2023-12-04T04:37:01;98236.97;;;-3.51;89.05
49611;BME280;35515;48.766;9.176;2023-12-04T04:39:29;98228.22;;;-3.74;90.09
49611;BME280;35515;48.766;9.176;2023-12-04T04:41:56;98230.72;;;-3.61;89.07
49611;BME280;35515;48.766;9.176;2023-12-04T04:44:22;98219.78;;;-3.68;88.78
49611;BME280;35515;48.766;9.176;2023-12-04T04:46:49;98230.25;;;-3.55;89.05
49611;BME280;35515;48.766;9.176;2023-12-04T04:49:15;98232.75;;;-3.42;88.11
49611;BME280;35515;48.766;9.176;2023-12-04T04:51:42;98233.28;;;-3.60;89.04
49611;BME280;35515;48.766;9.176;2023-12-04T04:54:08;98224.47;;;-3.60;89.65
49611;BME280;35515;48.766;9.176;2023-12-04T04:56:36;98227.47;;;-3.54;88.55
49611;BME280;35515;48.766;9.176;2023-12-04T04:59:02;98228.44;;;-3.55;88.42
49611;BME280;35515;48.766;9.176;2023-12-04T05:01:29;98226.28;;;-3.61;89.16
49611;BME280;35515;48.766;9.176;2023-12-04T05:03:55;98224.47;;;-3.49;88.37
49611;BME280;35515;48.766;9.176;2023-12-04T05:06:22;98219.03;;;-3.59;89.58
49611;BME280;35515;48.766;9.176;2023-12-04T05:08:49;98217.88;;;-3.66;89.73
49611;BME280;35515;48.766;9.176;2023-12-04T05:11:17;98211.13;;;-3.70;89.93
49611;BME280;35515;48.766;9.176;2023-12-04T05:13:45;98204.72;;;-3.56;90.15
49611;BME280;35515;48.766;9.176;2023-12-04T05:16:12;98196.63;;;-3.43;89.20
49611;BME280;35515;48.766;9.176;2023-12-04T05:18:39;98177.50;;;-3.47;89.46
49611;BME280;35515;48.766;9.176;2023-12-04T05:21:08;98177.97;;;-3.42;89.29
49611;BME280;35515;48.766;9.176;2023-12-04T05:23:35;98173.75;;;-3.33;88.73
49611;BME280;35515;48.766;9.176;2023-12-04T05:26:01;98169.88;;;-3.40;89.60
49611;BME280;35515;48.766;9.176;2023-12-04T05:28:28;98170.84;;;-3.41;90.26
49611;BME280;35515;48.766;9.176;2023-12-04T05:30:56;98165.09;;;-3.46;90.25
49611;BME280;35515;48.766;9.176;2023-12-04T05:33:22;98163.84;;;-3.31;89.01
49611;BME280;35515;48.766;9.176;2023-12-04T05:35:49;98156.84;;;-3.32;88.94
49611;BME280;35515;48.766;9.176;2023-12-04T05:38:16;98147.94;;;-3.31;89.77
49611;BME280;35515;48.766;9.176;2023-12-04T05:40:43;98140.53;;;-3.37;89.63
49611;BME280;35515;48.766;9.176;2023-12-04T05:43:09;98144.50;;;-3.43;89.99
49611;BME280;35515;48.766;9.176;2023-12-04T05:45:36;98152.28;;;-3.30;89.97
49611;BME280;35515;48.766;9.176;2023-12-04T05:48:04;98147.94;;;-3.31;90.11
49611;BME280;35515;48.766;9.176;2023-12-04T05:50:31;98154.78;;;-3.17;89.11
49611;BME280;35515;48.766;9.176;2023-12-04T05:52:58;98147.25;;;-3.33;90.35
49611;BME280;35515;48.766;9.176;2023-12-04T05:55:25;98145.06;;;-3.28;90.40
49611;BME280;35515;48.766;9.176;2023-12-04T05:57:51;98137.69;;;-3.24;89.82
49611;BME280;35515;48.766;9.176;2023-12-04T06:00:18;98142.19;;;-3.36;90.04
49611;BME280;35515;48.766;9.176;2023-12-04T06:02:45;98143.25;;;-3.27;89.68
49611;BME280;35515;48.766;9.176;2023-12-04T06:05:13;98145.91;;;-3.39;90.84
49611;BME280;35515;48.766;9.176;2023-12-04T06:07:39;98147.78;;;-3.18;89.74
49611;BME280;35515;48.766;9.176;2023-12-04T06:10:08;98149.81;;;-3.10;88.83
49611;BME280;35515;48.766;9.176;2023-12-04T06:12:35;98155.56;;;-3.05;88.39
49611;BME280;35515;48.766;9.176;2023-12-04T06:15:01;98150.72;;;-3.32;89.60
49611;BME280;35515;48.766;9.176;2023-12-04T06:17:28;98167.69;;;-3.03;87.70
49611;BME280;35515;48.766;9.176;2023-12-04T06:19:54;98147.91;;;-3.20;88.26
49611;BME280;35515;48.766;9.176;2023-12-04T06:22:23;98146.38;;;-3.33;89.68
49611;BME280;35515;48.766;9.176;2023-12-04T06:24:50;98139.78;;;-3.39;90.15
49611;BME280;35515;48.766;9.176;2023-12-04T06:27:18;98141.41;;;-3.27;89.61
49611;BME280;35515;48.766;9.176;2023-12-04T06:29:46;98140.72;;;-3.29;88.95
49611;BME280;35515;48.766;9.176;2023-12-04T06:32:13;98144.25;;;-3.40;89.33
49611;BME280;35515;48.766;9.176;2023-12-04T06:34:40;98147.19;;;-3.22;88.62
49611;BME280;35515;48.766;9.176;2023-12-04T06:37:09;98141.31;;;-3.04;87.95
49611;BME280;35515;48.766;9.176;2023-12-04T06:39:38;98132.53;;;-3.05;87.30
49611;BME280;35515;48.766;9.176;2023-12-04T06:42:06;98130.78;;;-3.15;87.66
49611;BME280;35515;48.766;9.176;2023-12-04T06:44:33;98125.09;;;-3.11;87.03
49611;BME280;35515;48.766;9.176;2023-12-04T06:47:01;98128.50;;;-3.20;88.06
49611;BME280;35515;48.766;9.176;2023-12-04T06:49:30;98115.34;;;-3.10;87.41
49611;BME280;35515;48.766;9.176;2023-12-04T06:51:56;98101.53;;;-2.93;87.74
49611;BME280;35515;48.766;9.176;2023-12-04T06:54:23;98109.03;;;-2.98;87.67
49611;BME280;35515;48.766;9.176;2023-12-04T06:56:51;98107.41;;;-3.10;89.42
49611;BME280;35515;48.766;9.176;2023-12-04T06:59:18;98113.72;;;-3.23;89.88
49611;BME280;35515;48.766;9.176;2023-12-04T07:01:45;98120.84;;;-3.02;88.62
49611;BME280;35515;48.766;9.176;2023-12-04T07:04:12;98130.19;;;-3.19;89.08
49611;BME280;35515;48.766;9.176;2023-12-04T07:06:39;98118.47;;;-3.05;88.08
49611;BME280;35515;48.766;9.176;2023-12-04T07:09:06;98117.56;;;-2.94;87.75
49611;BME280;35515;48.766;9.176;2023-12-04T07:11:34;98106.63;;;-3.01;87.72
49611;BME280;35515;48.766;9.176;2023-12-04T07:14:01;98110.75;;;-3.08;87.96
49611;BME280;35515;48.766;9.176;2023-12-04T07:16:28;98117.28;;;-3.12;88.61
49611;BME280;35515;48.766;9.176;2023-12-04T07:18:54;98107.09;;;-2.96;87.91
49611;BME280;35515;48.766;9.176;2023-12-04T07:21:21;98100.47;;;-3.02;87.33
49611;BME280;35515;48.766;9.176;2023-12-04T07:23:48;98078.75;;;-2.95;87.25
49611;BME280;35515;48.766;9.176;2023-12-04T07:26:14;98095.50;;;-2.95;87.51
49611;BME280;35515;48.766;9.176;2023-12-04T07:28:41;98098.88;;;-2.93;88.65
49611;BME280;35515;48.766;9.176;2023-12-04T07:31:09;98100.28;;;-2.89;88.16
49611;BME280;35515;48.766;9.176;2023-12-04T07:33:35;98089.03;;;-3.02;89.14
49611;BME280;35515;48.766;9.176;2023-12-04T07:36:02;98089.09;;;-2.92;88.41
49611;BME280;35515;48.766;9.176;2023-12-04T07:38:29;98084.88;;;-2.95;89.44
49611;BME280;35515;48.766;9.176;2023-12-04T07:40:55;98078.34;;;-2.91;88.27
49611;BME280;35515;48.766;9.176;2023-12-04T07:43:22;98073.69;;;-2.77;88.29
49611;BME280;35515;48.766;9.176;2023-12-04T07:45:48;98082.19;;;-2.83;88.76
49611;BME280;35515;48.766;9.176;2023-12-04T07:48:16;98087.34;;;-2.82;87.98
49611;BME280;35515;48.766;9.176;2023-12-04T07:50:43;98086.94;;;-2.77;87.98
49611;BME280;35515;48.766;9.176;2023-12-04T07:53:09;98083.16;;;-2.84;88.26
49611;BME280;35515;48.766;9.176;2023-12-04T07:55:37;98076.03;;;-2.84;88.66
49611;BME280;35515;48.766;9.176;2023-12-04T07:58:03;98076.66;;;-2.71;87.39
49611;BME280;35515;48.766;9.176;2023-12-04T08:00:30;98065.22;;;-2.71;87.31
49611;BME280;35515;48.766;9.176;2023-12-04T08:02:57;98064.59;;;-2.84;87.41
49611;BME280;35515;48.766;9.176;2023-12-04T08:05:25;98067.97;;;-2.82;88.12
49611;BME280;35515;48.766;9.176;2023-12-04T08:07:52;98071.91;;;-2.77;88.22
49611;BME280;35515;48.766;9.176;2023-12-04T08:10:19;98085.91;;;-2.65;87.45
49611;BME280;35515;48.766;9.176;2023-12-04T08:12:48;98081.28;;;-2.73;87.68
49611;BME280;35515;48.766;9.176;2023-12-04T08:15:14;98073.91;;;-2.69;86.60
49611;BME280;35515;48.766;9.176;2023-12-04T08:17:41;98061.88;;;-2.73;86.28
49611;BME280;35515;48.766;9.176;2023-12-04T08:20:08;98059.22;;;-2.73;86.33
49611;BME280;35515;48.766;9.176;2023-12-04T08:22:39;98064.91;;;-2.78;86.47
49611;BME280;35515;48.766;9.176;2023-12-04T08:25:06;98049.94;;;-2.58;85.82
49611;BME280;35515;48.766;9.176;2023-12-04T08:27:33;98041.28;;;-2.60;85.77
49611;BME280;35515;48.766;9.176;2023-12-04T08:30:00;98030.38;;;-2.66;85.88
49611;BME280;35515;48.766;9.176;2023-12-04T08:32:27;98027.88;;;-2.58;86.42
49611;BME280;35515;48.766;9.176;2023-12-04T08:34:54;98026.09;;;-2.48;85.85
49611;BME280;35515;48.766;9.176;2023-12-04T08:37:20;98032.25;;;-2.47;84.75
49611;BME280;35515;48.766;9.176;2023-12-04T08:39:48;98027.84;;;-2.27;83.43
49611;BME280;35515;48.766;9.176;2023-12-04T08:42:15;98025.91;;;-2.25;83.02
49611;BME280;35515;48.766;9.176;2023-12-04T08:44:41;98036.09;;;-2.21;83.75
49611;BME280;35515;48.766;9.176;2023-12-04T08:47:10;98027.94;;;-2.39;84.43
49611;BME280;35515;48.766;9.176;2023-12-04T08:49:37;98041.09;;;-2.37;84.99
49611;BME280;35515;48.766;9.176;2023-12-04T08:52:05;98033.44;;;-2.30;84.86
49611;BME280;35515;48.766;9.176;2023-12-04T08:54:32;98033.00;;;-2.26;84.24
49611;BME280;35515;48.766;9.176;2023-12-04T08:57:00;98030.56;;;-2.08;83.25
49611;BME280;35515;48.766;9.176;2023-12-04T08:59:27;98031.66;;;-2.10;83.42
49611;BME280;35515;48.766;9.176;2023-12-04T09:01:53;98029.69;;;-2.18;82.88
49611;BME280;35515;48.766;9.176;2023-12-04T09:04:20;98030.94;;;-2.22;83.23
49611;BME280;35515;48.766;9.176;2023-12-04T09:06:47;98044.28;;;-1.93;81.50
49611;BME280;35515;48.766;9.176;2023-12-04T09:09:13;98035.81;;;-2.17;82.44
49611;BME280;35515;48.766;9.176;2023-12-04T09:11:41;98046.19;;;-2.14;82.67
49611;BME280;35515;48.766;9.176;2023-12-04T09:14:09;98034.41;;;-2.31;83.05
49611;BME280;35515;48.766;9.176;2023-12-04T09:16:36;98029.91;;;-2.31;83.65
49611;BME280;35515;48.766;9.176;2023-12-04T09:19:02;98026.56;;;-2.33;83.34
49611;BME280;35515;48.766;9.176;2023-12-04T09:21:29;98022.25;;;-2.34;83.35
49611;BME280;35515;48.766;9.176;2023-12-04T09:23:56;98027.47;;;-2.13;83.50
49611;BME280;35515;48.766;9.176;2023-12-04T09:26:22;98024.38;;;-2.08;83.06
49611;BME280;35515;48.766;9.176;2023-12-04T09:28:49;98026.59;;;-2.13;83.30
49611;BME280;35515;48.766;9.176;2023-12-04T09:31:17;98026.34;;;-2.10;83.04
49611;BME280;35515;48.766;9.176;2023-12-04T09:33:44;98016.56;;;-2.00;83.13
49611;BME280;35515;48.766;9.176;2023-12-04T09:36:12;98013.78;;;-2.08;84.18
49611;BME280;35515;48.766;9.176;2023-12-04T09:38:42;98014.09;;;-1.82;83.31
49611;BME280;35515;48.766;9.176;2023-12-04T09:41:10;98016.88;;;-1.74;83.03
49611;BME280;35515;48.766;9.176;2023-12-04T09:43:38;98020.25;;;-1.62;82.16
49611;BME280;35515;48.766;9.176;2023-12-04T09:46:07;98021.81;;;-1.69;82.71
49611;BME280;35515;48.766;9.176;2023-12-04T09:48:36;98020.09;;;-1.60;82.16
49611;BME280;35515;48.766;9.176;2023-12-04T09:51:04;98028.94;;;-1.50;81.80
49611;BME280;35515;48.766;9.176;2023-12-04T09:53:32;98026.97;;;-1.58;82.34
49611;BME280;35515;48.766;9.176;2023-12-04T09:56:03;98017.44;;;-1.60;83.17
49611;BME280;35515;48.766;9.176;2023-12-04T09:58:30;98015.63;;;-1.70;84.50
49611;BME280;35515;48.766;9.176;2023-12-04T10:00:58;98037.31;;;-1.64;84.77
49611;BME280;35515;48.766;9.176;2023-12-04T10:03:25;98021.81;;;-1.69;85.20
49611;BME280;35515;48.766;9.176;2023-12-04T10:05:54;98003.19;;;-1.49;84.56
49611;BME280;35515;48.766;9.176;2023-12-04T10:08:20;97993.13;;;-1.56;85.13
49611;BME280;35515;48.766;9.176;2023-12-04T10:10:47;97995.63;;;-1.35;84.02
49611;BME280;35515;48.766;9.176;2023-12-04T10:13:14;97997.84;;;-1.30;83.46
49611;BME280;35515;48.766;9.176;2023-12-04T10:15:46;97985.63;;;-1.03;81.64
49611;BME280;35515;48.766;9.176;2023-12-04T10:18:24;97994.75;;;-1.15;82.61
49611;BME280;35515;48.766;9.176;2023-12-04T10:20:53;97986.66;;;-1.33;83.10
49611;BME280;35515;48.766;9.176;2023-12-04T10:23:20;97990.31;;;-1.35;84.72
49611;BME280;35515;48.766;9.176;2023-12-04T10:25:48;97982.81;;;-0.92;83.21
49611;BME280;35515;48.766;9.176;2023-12-04T10:28:15;97973.31;;;-1.04;83.04
49611;BME280;35515;48.766;9.176;2023-12-04T10:30:42;97965.06;;;-1.01;82.71
49611;BME280;35515;48.766;9.176;2023-12-04T10:33:09;97971.84;;;-1.26;84.21
49611;BME280;35515;48.766;9.176;2023-12-04T10:35:36;97974.31;;;-1.15;84.57
49611;BME280;35515;48.766;9.176;2023-12-04T10:38:06;97957.84;;;-1.19;85.48
49611;BME280;35515;48.766;9.176;2023-12-04T10:40:34;97961.41;;;-1.00;86.07
49611;BME280;35515;48.766;9.176;2023-12-04T10:43:11;97957.66;;;-1.07;85.98
49611;BME280;35515;48.766;9.176;2023-12-04T10:45:39;97949.97;;;-1.10;86.72
49611;BME280;35515;48.766;9.176;2023-12-04T10:48:07;97947.06;;;-1.17;87.78
49611;BME280;35515;48.766;9.176;2023-12-04T10:50:35;97938.38;;;-1.09;87.82
49611;BME280;35515;48.766;9.176;2023-12-04T10:53:04;97918.59;;;-1.07;87.81
49611;BME280;35515;48.766;9.176;2023-12-04T10:55:31;97926.66;;;-0.89;85.48
49611;BME280;35515;48.766;9.176;2023-12-04T10:58:00;97927.06;;;-0.83;86.25
49611;BME280;35515;48.766;9.176;2023-12-04T11:00:30;97914.16;;;-0.78;85.84
49611;BME280;35515;48.766;9.176;2023-12-04T11:03:03;97909.34;;;-0.65;86.07
49611;BME280;35515;48.766;9.176;2023-12-04T11:05:32;97893.94;;;-0.71;86.96
49611;BME280;35515;48.766;9.176;2023-12-04T11:08:01;97897.91;;;-0.75;87.69
49611;BME280;35515;48.766;9.176;2023-12-04T11:10:33;97883.53;;;-0.82;88.10
49611;BME280;35515;48.766;9.176;2023-12-04T11:13:02;97906.13;;;-0.69;87.46
49611;BME280;35515;48.766;9.176;2023-12-04T11:15:35;97896.91;;;-0.74;88.16
49611;BME280;35515;48.766;9.176;2023-12-04T11:18:06;97896.31;;;-0.68;87.45
49611;BME280;35515;48.766;9.176;2023-12-04T11:20:36;97884.53;;;-0.65;85.49
49611;BME280;35515;48.766;9.176;2023-12-04T11:23:06;97878.97;;;-0.72;85.25
49611;BME280;35515;48.766;9.176;2023-12-04T11:25:35;97873.97;;;-0.75;86.01
49611;BME280;35515;48.766;9.176;2023-12-04T11:28:02;97867.25;;;-0.79;86.76
49611;BME280;35515;48.766;9.176;2023-12-04T11:30:29;97879.53;;;-0.69;87.65
49611;BME280;35515;48.766;9.176;2023-12-04T11:32:56;97870.81;;;-0.61;86.92
49611;BME280;35515;48.766;9.176;2023-12-04T11:35:25;97873.69;;;-0.54;87.43
49611;BME280;35515;48.766;9.176;2023-12-04T11:37:52;97863.88;;;-0.54;88.50
49611;BME280;35515;48.766;9.176;2023-12-04T11:40:19;97869.34;;;-0.55;89.44
49611;BME280;35515;48.766;9.176;2023-12-04T11:42:46;97858.28;;;-0.51;88.48
49611;BME280;35515;48.766;9.176;2023-12-04T11:45:18;97857.56;;;-0.53;89.89
49611;BME280;35515;48.766;9.176;2023-12-04T11:47:49;97843.97;;;-0.49;89.51
49611;BME280;35515;48.766;9.176;2023-12-04T11:50:16;97834.31;;;-0.32;89.90
49611;BME280;35515;48.766;9.176;2023-12-04T11:52:44;97812.47;;;-0.36;90.43
49611;BME280;35515;48.766;9.176;2023-12-04T11:55:09;97806.00;;;-0.15;90.39
49611;BME280;35515;48.766;9.176;2023-12-04T11:57:37;97808.91;;;-0.27;91.25
49611;BME280;35515;48.766;9.176;2023-12-04T12:00:18;97796.72;;;-0.11;90.48
49611;BME280;35515;48.766;9.176;2023-12-04T12:02:47;97778.91;;;-0.11;90.46
49611;BME280;35515;48.766;9.176;2023-12-04T12:05:13;97774.06;;;-0.15;89.37
49611;BME280;35515;48.766;9.176;2023-12-04T12:07:40;97777.06;;;-0.19;90.41
49611;BME280;35515;48.766;9.176;2023-12-04T12:10:07;97774.28;;;-0.09;90.04
49611;BME280;35515;48.766;9.176;2023-12-04T12:12:36;97770.00;;;-0.02;89.89
49611;BME280;35515;48.766;9.176;2023-12-04T12:15:04;97779.44;;;-0.07;89.40
49611;BME280;35515;48.766;9.176;2023-12-04T12:17:35;97772.19;;;0.03;89.40
49611;BME280;35515;48.766;9.176;2023-12-04T12:20:02;97765.81;;;-0.04;89.45
49611;BME280;35515;48.766;9.176;2023-12-04T12:22:32;97774.81;;;-0.05;90.36
49611;BME280;35515;48.766;9.176;2023-12-04T12:24:58;97760.84;;;0.01;90.16
49611;BME280;35515;48.766;9.176;2023-12-04T12:27:25;97743.91;;;0.02;89.25
49611;BME280;35515;48.766;9.176;2023-12-04T12:29:52;97747.53;;;0.01;89.87
49611;BME280;35515;48.766;9.176;2023-12-04T12:32:18;97728.84;;;-0.07;89.54
49611;BME280;35515;48.766;9.176;2023-12-04T12:34:46;97725.81;;;-0.12;89.96
49611;BME280;35515;48.766;9.176;2023-12-04T12:37:13;97724.63;;;-0.18;90.87
49611;BME280;35515;48.766;9.176;2023-12-04T12:39:40;97737.66;;;-0.07;90.98
49611;BME280;35515;48.766;9.176;2023-12-04T12:42:06;97731.84;;;-0.10;91.74
49611;BME280;35515;48.766;9.176;2023-12-04T12:44:37;97732.41;;;-0.25;92.40
49611;BME280;35515;48.766;9.176;2023-12-04T12:47:06;97725.41;;;-0.26;92.92
49611;BME280;35515;48.766;9.176;2023-12-04T12:49:33;97734.16;;;-0.34;93.34
49611;BME280;35515;48.766;9.176;2023-12-04T12:52:02;97739.69;;;-0.27;93.47
49611;BME280;35515;48.766;9.176;2023-12-04T12:54:31;97728.91;;;-0.25;93.07
49611;BME280;35515;48.766;9.176;2023-12-04T12:56:58;97715.59;;;-0.25;93.76
49611;BME280;35515;48.766;9.176;2023-12-04T12:59:25;97722.16;;;-0.11;92.95
49611;BME280;35515;48.766;9.176;2023-12-04T13:01:52;97711.84;;;-0.14;92.19